West Liberty, Iowa
Current Conditions -  °F | °C
As of 12:15 PM on Monday 22 Dec 2014 (Local Time) from KMUT Reporting Station
Haze Haze  
Wind Chill: 33°   Ceiling: 600
Heat Index: 39°   Visibility: 2.5mi
Dew Point: 37°   Wind: 9mph
Humidity: 93%   Direction: 120°ESE
Pressure: 29.64"   Gusts: NA
Location:  41.57°N, 91.26°W
Report Text: KMUT 221815Z AUTO 12008KT 2 1/2SM BR OVC006 04/03 A2964 RMK AO2
Loading
Personal Weather Stations






























Interactive Weather Map New forecast layout! Learn more

10-Day Weather Forecast

Advertisements
Track Severe Weather on mobile